Airfield :







YOU CAN JOIN US ON...

 
LOGIN :

Register | Disclaimer

   EN    FR    IT 

 









Legend :    VFR   Marginal VFR   IFR   Intensive IFR   Very Intensive IFR
Visi :
Ceiling :
>= 8 km
>= 3000ft
5 to 8 km
1000 to 3000 ft
1500m to 5 km
500 to 1000 ft
800 to 1500m
200 to 500 ft
< 800m
< 200 ft
Symbols :   Thunderstorms  Fog  Heavy snow  Heavy precipitations  Wind > 20 kt






- Airport Elevation : 488 ft
- IATA code : EEN


KEEN - Dillant Hopkins

CURRENT METAR :
  • 171756Z AUTO 21012KT 10SM BKN018 OVC024 04/02 A2897 RMK AO2 RAE25 SLP820 P0000 60037 T00440022 10044 20011 56044 $

EXPIRED METARs :
  • 171730Z AUTO 17005KT 10SM OVC016 04/03 A2898 RMK AO2 RAE25 PRESFR P0000 $
  • 171709Z AUTO 17003KT 8SM -RA OVC014 03/02 A2901 RMK AO2 P0000 $
  • 171656Z AUTO 00000KT 8SM -RA OVC016 03/02 A2902 RMK AO2 SLP837 P0006 T00280022 $
  • 171556Z AUTO 00000KT 6SM RA BR FEW018 BKN025 OVC034 02/02 A2904 RMK AO2 UPE05RAB05 PRESFR SLP841 P0007 T00220017 FZRANO $

TAF N/A
KZBW FIR / North America



MET'MAP, your aeronautical weather chart ! - Copyright ORBIFLY December 2007 - Disclaimer

ORBIFLY MET'MAP TEAM :

Programming & Development : Alexandra Zaïnal
Concept & original design : Baudouin d'Aumeries
Assistance for programming : Marc-Olivier Méhu
Technical & hardware support : Manuel Goepfert

Contact : metmap@orbifly.com




SOURCES & CREDITS :

   NOAA